createdAt,value
2019-01-26T00:01:34.977Z,24.93
2019-01-26T00:04:04.309Z,25.40
2019-01-26T00:06:34.796Z,24.10
2019-01-26T00:09:06.532Z,24.03
2019-01-26T00:11:35.776Z,26.23
2019-01-26T00:14:04.964Z,23.90
2019-01-26T00:16:36.612Z,25.97
2019-01-26T00:19:05.753Z,25.10
2019-01-26T00:21:34.943Z,23.17
2019-01-26T00:24:04.140Z,24.60
2019-01-26T00:26:36.387Z,25.70
2019-01-26T00:29:02.500Z,25.17
2019-01-26T00:31:31.629Z,24.53
2019-01-26T00:34:00.864Z,26.17
2019-01-26T00:36:30.053Z,24.23
2019-01-26T00:38:59.192Z,25.27
2019-01-26T00:41:28.440Z,24.33
2019-01-26T00:43:57.686Z,25.23
2019-01-26T00:46:28.437Z,25.00
2019-01-26T00:48:55.980Z,23.70
2019-01-26T00:51:25.191Z,24.93
2019-01-26T00:53:55.596Z,23.80
2019-01-26T00:56:24.755Z,26.37
2019-01-26T00:58:55.215Z,24.10
2019-01-26T01:01:24.612Z,24.87
2019-01-26T01:03:53.821Z,24.37
2019-01-26T01:06:26.000Z,23.23
2019-01-26T01:08:52.092Z,23.30
2019-01-26T01:11:21.350Z,21.83
2019-01-26T01:13:50.553Z,22.83
2019-01-26T01:16:19.685Z,21.90
2019-01-26T01:18:48.915Z,23.20
2019-01-26T01:21:19.316Z,22.77
2019-01-26T01:23:48.535Z,21.73
2019-01-26T01:26:17.711Z,21.03
2019-01-26T01:28:46.873Z,21.10
2019-01-26T01:31:16.003Z,20.40
2019-01-26T01:33:45.144Z,21.07
2019-01-26T01:36:14.310Z,21.43
2019-01-26T01:38:43.517Z,20.90
2019-01-26T01:41:12.641Z,19.57
2019-01-26T01:43:41.929Z,19.77
2019-01-26T01:46:11.093Z,19.40
2019-01-26T01:48:40.282Z,19.20
2019-01-26T01:51:09.423Z,19.63
2019-01-26T01:53:38.584Z,19.27
2019-01-26T01:56:09.111Z,18.77
2019-01-26T01:58:38.323Z,19.83
2019-01-26T02:01:07.572Z,19.63
2019-01-26T02:03:36.756Z,20.70
2019-01-26T02:06:05.897Z,20.10
2019-01-26T02:08:35.029Z,18.77
2019-01-26T02:11:04.185Z,18.40
2019-01-26T02:13:33.317Z,19.33
2019-01-26T02:16:02.509Z,19.17
2019-01-26T02:18:31.659Z,19.77
2019-01-26T02:21:00.798Z,19.47
2019-01-26T02:23:29.924Z,19.27
2019-01-26T02:25:59.121Z,20.57
2019-01-26T02:28:28.222Z,19.00
2019-01-26T02:30:57.371Z,21.03
2019-01-26T02:33:26.594Z,18.93
2019-01-26T02:35:55.796Z,18.40
2019-01-26T02:38:24.918Z,18.27
2019-01-26T02:40:54.060Z,17.57
2019-01-26T02:43:23.238Z,17.37
2019-01-26T02:45:52.375Z,17.23
2019-01-26T02:48:21.538Z,17.20
2019-01-26T02:50:50.730Z,17.83
2019-01-26T02:53:19.875Z,17.30
2019-01-26T02:55:49.150Z,18.27
2019-01-26T02:58:18.293Z,18.73
2019-01-26T03:00:47.532Z,18.50
2019-01-26T03:03:16.665Z,18.77
2019-01-26T03:05:45.810Z,18.53
2019-01-26T03:08:14.973Z,18.97
2019-01-26T03:10:44.128Z,18.73
2019-01-26T03:13:13.305Z,17.50
2019-01-26T03:15:42.510Z,18.40
2019-01-26T03:18:11.667Z,18.30
2019-01-26T03:20:40.858Z,18.37
2019-01-26T03:23:09.995Z,16.40
2019-01-26T03:25:39.132Z,17.03
2019-01-26T03:28:08.289Z,15.90
2019-01-26T03:30:37.433Z,17.67
2019-01-26T03:33:06.577Z,17.53
2019-01-26T03:35:35.843Z,16.23
2019-01-26T03:38:05.082Z,17.53
2019-01-26T03:40:34.269Z,16.73
2019-01-26T03:43:03.398Z,15.87
2019-01-26T03:45:32.533Z,15.87
2019-01-26T03:48:01.700Z,16.70
2019-01-26T03:50:30.831Z,16.93
2019-01-26T03:53:00.052Z,17.00
2019-01-26T03:55:29.230Z,17.00
2019-01-26T03:57:58.360Z,15.37
2019-01-26T04:00:27.478Z,15.40
2019-01-26T04:02:56.665Z,16.17
2019-01-26T04:05:25.868Z,15.10
2019-01-26T04:07:55.002Z,16.70
2019-01-26T04:10:24.236Z,15.03
2019-01-26T04:12:53.445Z,15.23
2019-01-26T04:15:22.583Z,15.37
2019-01-26T04:17:51.708Z,16.13
2019-01-26T04:20:21.106Z,14.73
2019-01-26T04:22:50.294Z,15.27
2019-01-26T04:25:19.425Z,17.33
2019-01-26T04:27:48.588Z,12.73
2019-01-26T04:30:18.663Z,14.90
2019-01-26T04:32:47.784Z,15.80
2019-01-26T04:35:16.946Z,14.67
2019-01-26T04:37:46.082Z,15.83
2019-01-26T04:40:16.064Z,15.23
2019-01-26T04:42:45.219Z,15.50
2019-01-26T04:45:15.556Z,16.13
2019-01-26T04:47:44.749Z,15.87
2019-01-26T04:50:14.271Z,16.93
2019-01-26T04:52:43.535Z,15.07
2019-01-26T04:55:12.895Z,17.57
2019-01-26T04:57:42.083Z,18.00
2019-01-26T05:00:14.135Z,18.53
2019-01-26T05:02:43.300Z,16.90
2019-01-26T05:05:12.448Z,18.17
2019-01-26T05:07:41.686Z,17.73
2019-01-26T05:10:11.349Z,19.07
2019-01-26T05:12:40.526Z,18.23
2019-01-26T05:15:10.161Z,18.47
2019-01-26T05:17:39.806Z,17.47
2019-01-26T05:20:12.614Z,17.90
2019-01-26T05:22:41.810Z,18.03
2019-01-26T05:25:10.955Z,18.33
2019-01-26T05:27:40.123Z,16.90
2019-01-26T05:30:13.831Z,18.70
2019-01-26T05:32:42.950Z,17.83
2019-01-26T05:35:12.133Z,16.27
2019-01-26T05:37:41.310Z,17.47
2019-01-26T05:40:11.428Z,18.67
2019-01-26T05:42:40.655Z,17.10
2019-01-26T05:45:11.002Z,18.63
2019-01-26T05:47:47.603Z,17.10
2019-01-26T05:50:10.881Z,18.33
2019-01-26T05:52:40.078Z,18.77
2019-01-26T05:55:09.243Z,17.67
2019-01-26T05:57:38.367Z,17.97
2019-01-26T06:00:10.232Z,17.53
2019-01-26T06:02:40.524Z,17.43
2019-01-26T06:05:09.675Z,18.50
2019-01-26T06:07:38.841Z,16.77
2019-01-26T06:10:08.017Z,17.20
2019-01-26T06:12:37.140Z,17.80
2019-01-26T06:15:07.873Z,17.93
2019-01-26T06:17:37.019Z,16.07
2019-01-26T06:20:06.621Z,17.20
2019-01-26T06:22:35.751Z,18.50
2019-01-26T06:25:05.132Z,17.07
2019-01-26T06:27:34.307Z,17.20
2019-01-26T06:30:03.684Z,16.13
2019-01-26T06:32:34.135Z,16.60
2019-01-26T06:35:03.340Z,17.77
2019-01-26T06:37:32.546Z,17.73
2019-01-26T06:40:01.782Z,16.03
2019-01-26T06:42:31.008Z,16.53
2019-01-26T06:45:01.552Z,17.20
2019-01-26T06:47:30.755Z,17.20
2019-01-26T06:49:59.962Z,16.57
2019-01-26T06:52:29.384Z,16.23
2019-01-26T06:54:58.558Z,17.00
2019-01-26T06:57:27.795Z,16.43
2019-01-26T06:59:57.022Z,16.17
2019-01-26T07:02:26.245Z,16.30
2019-01-26T07:05:01.132Z,17.20
2019-01-26T07:07:30.285Z,17.10
2019-01-26T07:09:59.569Z,16.00
2019-01-26T07:12:28.767Z,16.13
2019-01-26T07:14:58.107Z,16.07
2019-01-26T07:17:27.818Z,16.30
2019-01-26T07:19:57.023Z,16.93
2019-01-26T07:22:26.222Z,16.90
2019-01-26T07:24:55.617Z,15.60
2019-01-26T07:27:24.843Z,16.63
2019-01-26T07:29:54.070Z,16.07
2019-01-26T07:32:23.275Z,15.97
2019-01-26T07:34:52.436Z,17.67
2019-01-26T07:37:21.807Z,17.57
2019-01-26T07:39:50.964Z,18.13
2019-01-26T07:42:20.126Z,16.40
2019-01-26T07:44:50.724Z,16.73
2019-01-26T07:47:19.861Z,16.60
2019-01-26T07:49:49.073Z,15.80
2019-01-26T07:52:18.280Z,16.33
2019-01-26T07:54:47.448Z,17.00
2019-01-26T07:57:16.593Z,18.87
2019-01-26T07:59:46.984Z,18.07
2019-01-26T08:02:16.171Z,18.63
2019-01-26T08:04:45.372Z,17.90
2019-01-26T08:07:14.509Z,18.23
2019-01-26T08:09:43.724Z,18.33
2019-01-26T08:12:12.907Z,18.67
2019-01-26T08:14:42.096Z,18.80
2019-01-26T08:17:11.229Z,20.20
2019-01-26T08:19:40.418Z,18.57
2019-01-26T08:22:09.712Z,19.27
2019-01-26T08:24:38.848Z,18.43
2019-01-26T08:27:08.045Z,18.00
2019-01-26T08:29:37.190Z,18.57
2019-01-26T08:32:06.379Z,19.97
2019-01-26T08:34:35.563Z,19.07
2019-01-26T08:37:04.850Z,18.27
2019-01-26T08:39:34.063Z,19.53
2019-01-26T08:42:03.216Z,19.37
2019-01-26T08:44:32.528Z,18.83
2019-01-26T08:47:01.688Z,17.63
2019-01-26T08:49:30.832Z,17.93
2019-01-26T08:52:00.069Z,19.17
2019-01-26T08:54:29.201Z,20.70
2019-01-26T08:56:58.357Z,20.50
2019-01-26T08:59:27.552Z,20.50
2019-01-26T09:02:02.332Z,18.60
2019-01-26T09:04:33.143Z,18.93
2019-01-26T09:07:04.980Z,19.03
2019-01-26T09:09:35.556Z,20.23
2019-01-26T09:12:04.699Z,19.17
2019-01-26T09:14:33.918Z,19.83
2019-01-26T09:17:03.149Z,19.93
2019-01-26T09:19:32.311Z,19.33
2019-01-26T09:22:01.538Z,20.13
2019-01-26T09:24:30.740Z,19.13
2019-01-26T09:26:59.916Z,17.77
2019-01-26T09:29:29.133Z,17.10
2019-01-26T09:31:58.372Z,18.03
2019-01-26T09:34:27.518Z,17.50
2019-01-26T09:36:56.749Z,17.73
2019-01-26T09:39:27.970Z,16.80
2019-01-26T09:41:58.634Z,19.67
2019-01-26T09:44:30.261Z,19.70
2019-01-26T09:46:59.481Z,16.53
2019-01-26T09:49:28.612Z,17.03
2019-01-26T09:51:57.781Z,15.63
2019-01-26T09:54:27.123Z,17.23
2019-01-26T09:56:58.708Z,16.43
2019-01-26T09:59:27.853Z,17.97
2019-01-26T10:01:57.069Z,17.03
2019-01-26T10:04:26.209Z,18.13
2019-01-26T10:06:55.465Z,19.73
2019-01-26T10:09:26.036Z,18.27
2019-01-26T10:11:57.653Z,20.63
2019-01-26T10:14:27.301Z,20.03
2019-01-26T10:16:56.477Z,19.97
2019-01-26T10:19:25.697Z,19.47
2019-01-26T10:21:54.896Z,17.70
2019-01-26T10:24:24.020Z,19.67
2019-01-26T10:26:55.630Z,19.73
2019-01-26T10:29:24.832Z,20.87
2019-01-26T10:31:54.033Z,19.30
2019-01-26T10:34:23.248Z,19.23
2019-01-26T10:36:59.052Z,17.40
2019-01-26T10:39:28.177Z,18.07
2019-01-26T10:42:03.624Z,18.60
2019-01-26T10:44:33.659Z,16.43
2019-01-26T10:47:02.784Z,18.27
2019-01-26T10:49:33.230Z,18.87
2019-01-26T10:52:02.393Z,19.00
2019-01-26T10:54:31.526Z,17.57
2019-01-26T10:57:00.654Z,17.43
2019-01-26T10:59:31.172Z,16.20
2019-01-26T11:02:01.806Z,17.70
2019-01-26T11:04:31.004Z,16.93
2019-01-26T11:07:00.142Z,18.17
2019-01-26T11:09:29.327Z,19.10
2019-01-26T11:11:58.465Z,18.43
2019-01-26T11:14:27.680Z,19.90
2019-01-26T11:16:58.120Z,18.83
2019-01-26T11:19:27.296Z,19.20
2019-01-26T11:21:56.568Z,19.07
2019-01-26T11:24:25.734Z,17.13
2019-01-26T11:26:54.889Z,17.17
2019-01-26T11:29:25.282Z,18.27
2019-01-26T11:31:54.528Z,19.23
2019-01-26T11:34:23.682Z,18.30
2019-01-26T11:36:52.874Z,16.63
2019-01-26T11:39:22.530Z,17.57
2019-01-26T11:41:51.380Z,18.47
2019-01-26T11:44:20.548Z,16.50
2019-01-26T11:46:54.568Z,17.57
2019-01-26T11:49:23.700Z,14.80
2019-01-26T11:52:08.835Z,14.90
2019-01-26T11:54:44.880Z,13.97
2019-01-26T11:57:18.977Z,12.50
2019-01-26T11:59:52.494Z,10.87
2019-01-26T12:02:29.928Z,10.50
2019-01-26T12:05:01.310Z,9.60
2019-01-26T12:07:33.839Z,10.43
2019-01-26T12:10:02.994Z,10.60
2019-01-26T12:12:32.180Z,10.67
2019-01-26T12:15:01.363Z,11.83
2019-01-26T12:17:30.501Z,12.17
2019-01-26T12:20:02.122Z,13.40
2019-01-26T12:22:31.312Z,12.10
2019-01-26T12:25:00.556Z,13.70
2019-01-26T12:27:29.713Z,13.53
2019-01-26T12:29:58.878Z,13.77
2019-01-26T12:32:29.648Z,13.73
2019-01-26T12:34:58.797Z,13.53
2019-01-26T12:37:27.916Z,16.63
2019-01-26T12:39:57.104Z,17.10
2019-01-26T12:42:26.247Z,14.87
2019-01-26T12:44:55.380Z,13.83
2019-01-26T12:47:25.752Z,15.17
2019-01-26T12:49:54.936Z,14.90
2019-01-26T12:52:24.071Z,15.03
2019-01-26T12:54:53.315Z,13.17
2019-01-26T12:57:23.692Z,14.70
2019-01-26T12:59:52.880Z,19.83
2019-01-26T13:02:22.053Z,17.07
2019-01-26T13:04:53.724Z,18.33
2019-01-26T13:07:22.872Z,15.93
2019-01-26T13:09:52.002Z,14.63
2019-01-26T13:12:21.152Z,17.07
2019-01-26T13:14:50.335Z,15.30
2019-01-26T13:17:19.504Z,18.50
2019-01-26T13:19:48.700Z,13.30
2019-01-26T13:22:17.844Z,12.67
2019-01-26T13:24:48.332Z,11.90
2019-01-26T13:27:17.472Z,13.13
2019-01-26T13:29:46.595Z,12.97
2019-01-26T13:32:15.769Z,12.43
2019-01-26T13:34:45.625Z,11.97
2019-01-26T13:37:14.828Z,12.83
2019-01-26T13:39:45.255Z,13.00
2019-01-26T13:42:14.377Z,11.67
2019-01-26T13:44:43.552Z,11.13
2019-01-26T13:47:12.731Z,13.70
2019-01-26T13:49:44.079Z,14.53
2019-01-26T13:52:11.076Z,11.13
2019-01-26T13:54:40.235Z,15.03
2019-01-26T13:57:09.392Z,13.53
2019-01-26T13:59:38.663Z,12.00
2019-01-26T14:02:09.037Z,12.93
2019-01-26T14:04:38.817Z,12.60
2019-01-26T14:07:08.150Z,11.77
2019-01-26T14:09:38.576Z,12.17
2019-01-26T14:12:07.722Z,10.87
2019-01-26T14:14:36.872Z,10.87
2019-01-26T14:17:06.048Z,11.77
2019-01-26T14:19:35.295Z,11.47
2019-01-26T14:22:04.444Z,11.90
2019-01-26T14:24:33.591Z,10.13
2019-01-26T14:27:02.791Z,9.93
2019-01-26T14:29:31.932Z,11.83
2019-01-26T14:32:01.074Z,11.50
2019-01-26T14:34:31.504Z,11.90
2019-01-26T14:37:00.754Z,12.50
2019-01-26T14:39:29.884Z,14.13
2019-01-26T14:41:59.075Z,12.43
2019-01-26T14:44:28.221Z,11.17
2019-01-26T14:46:57.384Z,10.60
2019-01-26T14:49:27.892Z,10.30
2019-01-26T14:51:57.048Z,11.23
2019-01-26T14:54:27.423Z,11.70
2019-01-26T14:56:56.583Z,11.53
2019-01-26T14:59:28.199Z,10.97
2019-01-26T15:01:57.358Z,11.00
2019-01-26T15:04:27.799Z,12.40
2019-01-26T15:06:56.941Z,12.97
2019-01-26T15:09:27.319Z,13.97
2019-01-26T15:11:56.457Z,13.23
2019-01-26T15:14:31.744Z,15.03
2019-01-26T15:17:00.877Z,14.83
2019-01-26T15:19:30.038Z,14.50
2019-01-26T15:21:59.324Z,14.80
2019-01-26T15:24:28.473Z,15.70
2019-01-26T15:26:57.616Z,18.67
2019-01-26T15:29:28.093Z,19.43
2019-01-26T15:31:57.239Z,20.27
2019-01-26T15:34:26.416Z,18.33
2019-01-26T15:36:55.576Z,18.67
2019-01-26T15:39:27.493Z,18.60
2019-01-26T15:41:56.735Z,20.00
2019-01-26T15:44:25.872Z,18.63
2019-01-26T15:46:55.116Z,18.43
2019-01-26T15:49:24.276Z,19.83
2019-01-26T15:51:53.440Z,20.07
2019-01-26T15:54:22.661Z,21.87
2019-01-26T15:56:51.928Z,20.73
2019-01-26T15:59:21.172Z,21.27
2019-01-26T16:01:50.428Z,21.30
2019-01-26T16:04:19.650Z,21.83
2019-01-26T16:06:48.794Z,22.17
2019-01-26T16:09:17.925Z,21.87
2019-01-26T16:11:48.278Z,22.23
2019-01-26T16:14:17.415Z,22.37
2019-01-26T16:16:47.800Z,23.53
2019-01-26T16:19:17.777Z,25.67
2019-01-26T16:21:46.955Z,25.53
2019-01-26T16:24:16.122Z,25.80
2019-01-26T16:26:45.311Z,27.60
2019-01-26T16:29:14.479Z,26.10
2019-01-26T16:31:43.698Z,28.17
2019-01-26T16:34:14.932Z,29.93
2019-01-26T16:36:44.129Z,32.83
2019-01-26T16:39:13.283Z,31.13
2019-01-26T16:41:43.824Z,29.67
2019-01-26T16:44:13.001Z,31.90
2019-01-26T16:46:42.224Z,31.70
2019-01-26T16:49:11.381Z,31.23
2019-01-26T16:51:40.559Z,32.40
2019-01-26T16:54:09.760Z,29.43
2019-01-26T16:56:38.902Z,28.83
2019-01-26T16:59:08.779Z,30.70
2019-01-26T17:01:37.983Z,30.60
2019-01-26T17:04:09.690Z,30.87
2019-01-26T17:06:40.098Z,29.93
2019-01-26T17:09:10.714Z,27.27
2019-01-26T17:11:39.881Z,32.40
2019-01-26T17:14:09.111Z,26.20
2019-01-26T17:16:40.876Z,25.97
2019-01-26T17:19:10.070Z,27.20
2019-01-26T17:21:39.256Z,28.37
2019-01-26T17:24:08.504Z,29.90
2019-01-26T17:26:37.682Z,25.17
2019-01-26T17:29:06.852Z,25.37
2019-01-26T17:31:36.048Z,25.73
2019-01-26T17:34:05.291Z,31.17
2019-01-26T17:36:34.518Z,28.67
2019-01-26T17:39:07.740Z,26.80
2019-01-26T17:41:36.993Z,28.90
2019-01-26T17:44:06.187Z,31.93
2019-01-26T17:46:36.558Z,29.57
2019-01-26T17:49:05.730Z,32.63
2019-01-26T17:51:34.898Z,32.87
2019-01-26T17:54:04.065Z,33.47
2019-01-26T17:56:34.599Z,41.50
2019-01-26T17:59:03.893Z,29.57
2019-01-26T18:01:33.104Z,32.37
2019-01-26T18:04:02.279Z,33.07
2019-01-26T18:06:31.571Z,37.83
2019-01-26T18:09:00.821Z,33.87
2019-01-26T18:11:30.035Z,35.27
2019-01-26T18:14:00.538Z,36.20
2019-01-26T18:16:29.753Z,34.87
2019-01-26T18:18:59.014Z,33.27
2019-01-26T18:21:28.268Z,33.40
2019-01-26T18:23:57.917Z,32.23
2019-01-26T18:26:27.052Z,33.10
2019-01-26T18:28:56.258Z,37.87
2019-01-26T18:31:26.690Z,42.37
2019-01-26T18:33:56.008Z,46.37
2019-01-26T18:36:25.247Z,45.43
2019-01-26T18:38:54.425Z,43.27
2019-01-26T18:41:23.753Z,46.30
2019-01-26T18:43:52.956Z,45.90
2019-01-26T18:46:22.222Z,46.47
2019-01-26T18:48:51.437Z,50.40
2019-01-26T18:51:20.710Z,49.93
2019-01-26T18:53:49.932Z,45.77
2019-01-26T18:56:19.223Z,35.30
2019-01-26T18:58:48.498Z,44.17
2019-01-26T19:01:17.639Z,46.90
2019-01-26T19:03:53.854Z,46.13
2019-01-26T19:06:23.131Z,40.70
2019-01-26T19:08:52.413Z,39.07
2019-01-26T19:11:21.577Z,40.80
2019-01-26T19:13:50.749Z,39.83
2019-01-26T19:16:22.437Z,38.40
2019-01-26T19:18:51.630Z,39.43
2019-01-26T19:21:24.193Z,40.50
2019-01-26T19:23:53.931Z,41.03
2019-01-26T19:26:23.146Z,38.07
2019-01-26T19:28:53.638Z,33.47
2019-01-26T19:31:22.801Z,37.33
2019-01-26T19:33:53.180Z,39.17
2019-01-26T19:36:22.471Z,40.73
2019-01-26T19:38:51.926Z,38.43
2019-01-26T19:41:24.450Z,36.70
2019-01-26T19:43:53.773Z,38.37
2019-01-26T19:46:25.519Z,41.03
2019-01-26T19:48:54.708Z,39.17
2019-01-26T19:51:23.983Z,37.37
2019-01-26T19:53:53.216Z,38.67
2019-01-26T19:56:22.555Z,39.13
2019-01-26T19:58:52.608Z,37.77
2019-01-26T20:01:21.853Z,39.70
2019-01-26T20:03:51.053Z,42.57
2019-01-26T20:06:21.161Z,42.27
2019-01-26T20:08:50.467Z,38.63
2019-01-26T20:11:22.197Z,37.00
2019-01-26T20:13:51.391Z,37.37
2019-01-26T20:16:20.622Z,38.53
2019-01-26T20:18:54.699Z,37.57
2019-01-26T20:21:24.070Z,35.13
2019-01-26T20:23:53.293Z,39.80
2019-01-26T20:26:22.513Z,43.97
2019-01-26T20:28:51.732Z,40.70
2019-01-26T20:31:20.886Z,46.80
2019-01-26T20:33:50.025Z,47.37
2019-01-26T20:36:19.190Z,44.07
2019-01-26T20:38:48.334Z,46.17
2019-01-26T20:41:17.533Z,45.70
2019-01-26T20:43:46.657Z,45.10
2019-01-26T20:46:15.872Z,43.27
2019-01-26T20:48:46.528Z,43.60
2019-01-26T20:51:16.515Z,41.37
2019-01-26T20:53:45.709Z,38.63
2019-01-26T20:56:16.134Z,39.63
2019-01-26T20:58:45.356Z,32.80
2019-01-26T21:01:15.712Z,36.60
2019-01-26T21:03:44.860Z,33.37
2019-01-26T21:06:14.048Z,32.77
2019-01-26T21:08:43.231Z,33.67
2019-01-26T21:11:12.496Z,34.73
2019-01-26T21:13:41.643Z,31.97
2019-01-26T21:16:10.814Z,34.20
2019-01-26T21:18:42.517Z,32.90
2019-01-26T21:21:12.444Z,33.67
2019-01-26T21:23:41.585Z,30.13
2019-01-26T21:26:10.716Z,31.77
2019-01-26T21:28:41.127Z,30.17
2019-01-26T21:31:10.278Z,32.57
2019-01-26T21:33:39.652Z,33.97
2019-01-26T21:36:08.812Z,31.77
2019-01-26T21:38:37.992Z,32.40
2019-01-26T21:41:09.891Z,34.30
2019-01-26T21:43:39.053Z,34.57
2019-01-26T21:46:08.237Z,32.23
2019-01-26T21:48:39.935Z,31.77
2019-01-26T21:51:09.124Z,33.80
2019-01-26T21:53:38.270Z,35.53
2019-01-26T21:56:07.436Z,29.97
2019-01-26T21:58:37.848Z,33.77
2019-01-26T22:01:06.986Z,33.60
2019-01-26T22:03:37.310Z,32.33
2019-01-26T22:06:06.766Z,33.13
2019-01-26T22:08:35.935Z,31.27
2019-01-26T22:11:05.185Z,31.77
2019-01-26T22:13:35.635Z,32.70
2019-01-26T22:16:04.913Z,34.23
2019-01-26T22:18:34.130Z,33.70
2019-01-26T22:21:03.351Z,34.53
2019-01-26T22:23:32.487Z,35.47
2019-01-26T22:26:01.645Z,34.63
2019-01-26T22:28:31.088Z,33.33
2019-01-26T22:31:00.275Z,34.80
2019-01-26T22:33:29.501Z,35.90
2019-01-26T22:35:58.718Z,34.90
2019-01-26T22:38:27.895Z,35.13
2019-01-26T22:40:57.062Z,36.97
2019-01-26T22:43:26.264Z,41.67
2019-01-26T22:45:55.416Z,40.20
2019-01-26T22:48:24.609Z,39.40
2019-01-26T22:50:53.860Z,40.57
2019-01-26T22:53:23.018Z,39.77
2019-01-26T22:55:52.307Z,41.37
2019-01-26T22:58:23.927Z,41.27
2019-01-26T23:00:56.530Z,40.73
2019-01-26T23:03:30.321Z,40.83
2019-01-26T23:06:06.113Z,42.47
2019-01-26T23:08:36.576Z,40.60
2019-01-26T23:11:09.486Z,39.57
2019-01-26T23:13:44.956Z,41.20
2019-01-26T23:16:19.525Z,40.67
2019-01-26T23:18:56.312Z,39.03
2019-01-26T23:21:37.556Z,41.80
2019-01-26T23:24:11.666Z,38.80
2019-01-26T23:27:01.605Z,40.47
2019-01-26T23:29:38.330Z,40.27
2019-01-26T23:32:07.497Z,40.10
2019-01-26T23:34:36.657Z,41.97
2019-01-26T23:37:05.865Z,41.63
2019-01-26T23:39:35.035Z,41.30
2019-01-26T23:42:05.472Z,39.87
2019-01-26T23:44:36.005Z,39.97
2019-01-26T23:47:05.160Z,42.37
2019-01-26T23:49:34.353Z,41.40
2019-01-26T23:52:03.524Z,41.47
2019-01-26T23:54:32.681Z,44.47
2019-01-26T23:57:03.209Z,40.77
2019-01-26T23:59:32.376Z,40.43
